sensor_id;sensor_type;location;lat;lon;timestamp;P1;durP1;ratioP1;P2;durP2;ratioP2
57067;SDS011;43391;47.448;18.904;2022-09-09T00:01:19;6.93;;;3.60;;
57067;SDS011;43391;47.448;18.904;2022-09-09T00:04:12;4.82;;;2.97;;
57067;SDS011;43391;47.448;18.904;2022-09-09T00:07:05;3.60;;;3.08;;
57067;SDS011;43391;47.448;18.904;2022-09-09T00:09:53;5.93;;;3.55;;
57067;SDS011;43391;47.448;18.904;2022-09-09T00:15:22;4.88;;;3.25;;
57067;SDS011;43391;47.448;18.904;2022-09-09T00:18:00;5.20;;;3.55;;
57067;SDS011;43391;47.448;18.904;2022-09-09T00:20:47;4.03;;;2.85;;
57067;SDS011;43391;47.448;18.904;2022-09-09T00:23:25;4.70;;;3.67;;
57067;SDS011;43391;47.448;18.904;2022-09-09T00:25:59;4.07;;;3.20;;
57067;SDS011;43391;47.448;18.904;2022-09-09T00:28:45;3.65;;;3.35;;
57067;SDS011;43391;47.448;18.904;2022-09-09T00:31:21;4.20;;;3.17;;
57067;SDS011;43391;47.448;18.904;2022-09-09T00:33:51;4.00;;;3.08;;
57067;SDS011;43391;47.448;18.904;2022-09-09T00:36:20;3.60;;;3.30;;
57067;SDS011;43391;47.448;18.904;2022-09-09T00:38:56;7.35;;;3.22;;
57067;SDS011;43391;47.448;18.904;2022-09-09T00:44:06;3.25;;;2.78;;
57067;SDS011;43391;47.448;18.904;2022-09-09T01:05:20;3.50;;;3.20;;
57067;SDS011;43391;47.448;18.904;2022-09-09T01:07:52;3.13;;;2.83;;
57067;SDS011;43391;47.448;18.904;2022-09-09T01:10:30;4.07;;;3.25;;
57067;SDS011;43391;47.448;18.904;2022-09-09T01:13:31;3.17;;;2.88;;
57067;SDS011;43391;47.448;18.904;2022-09-09T01:16:00;7.38;;;3.50;;
57067;SDS011;43391;47.448;18.904;2022-09-09T01:18:52;3.90;;;3.22;;
57067;SDS011;43391;47.448;18.904;2022-09-09T01:27:22;4.10;;;3.60;;
57067;SDS011;43391;47.448;18.904;2022-09-09T01:29:50;3.95;;;3.40;;
57067;SDS011;43391;47.448;18.904;2022-09-09T01:35:07;6.00;;;3.55;;
57067;SDS011;43391;47.448;18.904;2022-09-09T01:37:35;4.00;;;3.67;;
57067;SDS011;43391;47.448;18.904;2022-09-09T01:40:00;6.05;;;3.67;;
57067;SDS011;43391;47.448;18.904;2022-09-09T01:42:26;5.30;;;3.72;;
57067;SDS011;43391;47.448;18.904;2022-09-09T01:44:51;4.78;;;3.50;;
57067;SDS011;43391;47.448;18.904;2022-09-09T01:47:17;3.50;;;3.20;;
57067;SDS011;43391;47.448;18.904;2022-09-09T01:49:42;4.53;;;3.60;;
57067;SDS011;43391;47.448;18.904;2022-09-09T01:52:07;4.20;;;3.40;;
57067;SDS011;43391;47.448;18.904;2022-09-09T01:54:33;3.55;;;3.25;;
57067;SDS011;43391;47.448;18.904;2022-09-09T01:57:06;4.80;;;3.53;;
57067;SDS011;43391;47.448;18.904;2022-09-09T02:05:01;4.43;;;3.67;;
57067;SDS011;43391;47.448;18.904;2022-09-09T02:07:42;6.00;;;3.78;;
57067;SDS011;43391;47.448;18.904;2022-09-09T02:10:13;5.47;;;3.67;;
57067;SDS011;43391;47.448;18.904;2022-09-09T02:12:45;3.72;;;3.42;;
57067;SDS011;43391;47.448;18.904;2022-09-09T02:15:22;5.35;;;3.67;;
57067;SDS011;43391;47.448;18.904;2022-09-09T02:17:55;4.85;;;3.78;;
57067;SDS011;43391;47.448;18.904;2022-09-09T02:20:23;4.15;;;3.78;;
57067;SDS011;43391;47.448;18.904;2022-09-09T02:22:52;6.00;;;4.25;;
57067;SDS011;43391;47.448;18.904;2022-09-09T02:25:19;4.55;;;4.00;;
57067;SDS011;43391;47.448;18.904;2022-09-09T02:27:48;4.35;;;3.95;;
57067;SDS011;43391;47.448;18.904;2022-09-09T02:30:16;4.07;;;3.65;;
57067;SDS011;43391;47.448;18.904;2022-09-09T02:32:42;6.60;;;4.22;;
57067;SDS011;43391;47.448;18.904;2022-09-09T02:35:12;4.78;;;4.28;;
57067;SDS011;43391;47.448;18.904;2022-09-09T02:37:41;5.55;;;4.05;;
57067;SDS011;43391;47.448;18.904;2022-09-09T02:40:09;4.28;;;3.88;;
57067;SDS011;43391;47.448;18.904;2022-09-09T02:42:40;4.00;;;3.57;;
57067;SDS011;43391;47.448;18.904;2022-09-09T02:45:06;3.70;;;3.40;;
57067;SDS011;43391;47.448;18.904;2022-09-09T02:50:32;5.60;;;4.15;;
57067;SDS011;43391;47.448;18.904;2022-09-09T02:55:48;4.45;;;3.60;;
57067;SDS011;43391;47.448;18.904;2022-09-09T02:58:19;5.22;;;3.80;;
57067;SDS011;43391;47.448;18.904;2022-09-09T03:00:46;6.65;;;4.60;;
57067;SDS011;43391;47.448;18.904;2022-09-09T03:03:13;5.32;;;4.30;;
57067;SDS011;43391;47.448;18.904;2022-09-09T03:05:41;3.72;;;3.42;;
57067;SDS011;43391;47.448;18.904;2022-09-09T03:08:06;4.40;;;4.00;;
57067;SDS011;43391;47.448;18.904;2022-09-09T03:10:32;4.65;;;4.25;;
57067;SDS011;43391;47.448;18.904;2022-09-09T03:12:58;7.13;;;4.20;;
57067;SDS011;43391;47.448;18.904;2022-09-09T03:15:23;4.97;;;4.47;;
57067;SDS011;43391;47.448;18.904;2022-09-09T03:17:49;4.50;;;4.10;;
57067;SDS011;43391;47.448;18.904;2022-09-09T03:20:14;4.75;;;4.15;;
57067;SDS011;43391;47.448;18.904;2022-09-09T03:22:39;6.93;;;4.20;;
57067;SDS011;43391;47.448;18.904;2022-09-09T03:25:05;4.95;;;3.78;;
57067;SDS011;43391;47.448;18.904;2022-09-09T03:27:31;4.38;;;3.97;;
57067;SDS011;43391;47.448;18.904;2022-09-09T03:29:57;6.25;;;4.50;;
57067;SDS011;43391;47.448;18.904;2022-09-09T03:32:22;4.95;;;4.45;;
57067;SDS011;43391;47.448;18.904;2022-09-09T03:34:50;5.40;;;4.50;;
57067;SDS011;43391;47.448;18.904;2022-09-09T03:37:17;7.20;;;4.63;;
57067;SDS011;43391;47.448;18.904;2022-09-09T03:39:43;4.85;;;4.35;;
57067;SDS011;43391;47.448;18.904;2022-09-09T03:42:09;6.80;;;5.38;;
57067;SDS011;43391;47.448;18.904;2022-09-09T03:44:37;6.05;;;5.40;;
57067;SDS011;43391;47.448;18.904;2022-09-09T03:47:02;5.68;;;5.07;;
57067;SDS011;43391;47.448;18.904;2022-09-09T03:49:28;6.55;;;5.70;;
57067;SDS011;43391;47.448;18.904;2022-09-09T03:51:54;6.63;;;5.90;;
57067;SDS011;43391;47.448;18.904;2022-09-09T03:54:23;6.60;;;5.85;;
57067;SDS011;43391;47.448;18.904;2022-09-09T03:56:49;6.72;;;6.00;;
57067;SDS011;43391;47.448;18.904;2022-09-09T03:59:15;6.22;;;5.35;;
57067;SDS011;43391;47.448;18.904;2022-09-09T04:01:40;9.38;;;6.30;;
57067;SDS011;43391;47.448;18.904;2022-09-09T04:04:06;8.73;;;6.53;;
57067;SDS011;43391;47.448;18.904;2022-09-09T04:06:32;9.02;;;6.45;;
57067;SDS011;43391;47.448;18.904;2022-09-09T04:08:58;7.68;;;6.82;;
57067;SDS011;43391;47.448;18.904;2022-09-09T04:11:23;7.40;;;6.70;;
57067;SDS011;43391;47.448;18.904;2022-09-09T04:13:49;7.13;;;6.25;;
57067;SDS011;43391;47.448;18.904;2022-09-09T04:16:14;6.95;;;6.25;;
57067;SDS011;43391;47.448;18.904;2022-09-09T04:18:40;7.75;;;6.50;;
57067;SDS011;43391;47.448;18.904;2022-09-09T04:21:06;7.35;;;6.65;;
57067;SDS011;43391;47.448;18.904;2022-09-09T04:23:33;7.88;;;6.72;;
57067;SDS011;43391;47.448;18.904;2022-09-09T04:25:59;9.10;;;6.85;;
57067;SDS011;43391;47.448;18.904;2022-09-09T04:28:28;7.63;;;6.93;;
57067;SDS011;43391;47.448;18.904;2022-09-09T04:30:55;8.60;;;7.60;;
57067;SDS011;43391;47.448;18.904;2022-09-09T04:33:23;7.50;;;6.75;;
57067;SDS011;43391;47.448;18.904;2022-09-09T04:35:50;7.50;;;6.65;;
57067;SDS011;43391;47.448;18.904;2022-09-09T04:38:15;7.70;;;6.97;;
57067;SDS011;43391;47.448;18.904;2022-09-09T04:40:48;7.72;;;6.88;;
57067;SDS011;43391;47.448;18.904;2022-09-09T04:43:15;9.52;;;6.80;;
57067;SDS011;43391;47.448;18.904;2022-09-09T04:45:44;9.25;;;7.65;;
57067;SDS011;43391;47.448;18.904;2022-09-09T04:48:12;8.52;;;7.45;;
57067;SDS011;43391;47.448;18.904;2022-09-09T04:50:37;8.30;;;7.40;;
57067;SDS011;43391;47.448;18.904;2022-09-09T04:53:03;9.68;;;7.60;;
57067;SDS011;43391;47.448;18.904;2022-09-09T04:55:30;8.55;;;6.50;;
57067;SDS011;43391;47.448;18.904;2022-09-09T04:57:56;9.45;;;7.90;;
57067;SDS011;43391;47.448;18.904;2022-09-09T05:00:22;8.63;;;7.30;;
57067;SDS011;43391;47.448;18.904;2022-09-09T05:02:48;7.75;;;6.82;;
57067;SDS011;43391;47.448;18.904;2022-09-09T05:05:13;8.35;;;7.03;;
57067;SDS011;43391;47.448;18.904;2022-09-09T05:07:39;11.07;;;7.47;;
57067;SDS011;43391;47.448;18.904;2022-09-09T05:10:04;8.63;;;7.35;;
57067;SDS011;43391;47.448;18.904;2022-09-09T05:12:30;7.63;;;6.93;;
57067;SDS011;43391;47.448;18.904;2022-09-09T05:14:56;10.45;;;7.47;;
57067;SDS011;43391;47.448;18.904;2022-09-09T05:17:22;11.00;;;7.38;;
57067;SDS011;43391;47.448;18.904;2022-09-09T05:19:48;8.27;;;7.45;;
57067;SDS011;43391;47.448;18.904;2022-09-09T05:22:18;9.25;;;8.35;;
57067;SDS011;43391;47.448;18.904;2022-09-09T05:24:45;8.43;;;7.18;;
57067;SDS011;43391;47.448;18.904;2022-09-09T05:27:11;14.60;;;8.40;;
57067;SDS011;43391;47.448;18.904;2022-09-09T05:29:37;8.18;;;7.40;;
57067;SDS011;43391;47.448;18.904;2022-09-09T05:32:03;10.82;;;8.25;;
57067;SDS011;43391;47.448;18.904;2022-09-09T05:34:28;8.15;;;7.35;;
57067;SDS011;43391;47.448;18.904;2022-09-09T05:36:54;8.27;;;7.45;;
57067;SDS011;43391;47.448;18.904;2022-09-09T05:39:19;8.30;;;7.50;;
57067;SDS011;43391;47.448;18.904;2022-09-09T05:41:44;8.52;;;7.63;;
57067;SDS011;43391;47.448;18.904;2022-09-09T05:44:10;8.02;;;7.22;;
57067;SDS011;43391;47.448;18.904;2022-09-09T05:46:35;7.18;;;6.47;;
57067;SDS011;43391;47.448;18.904;2022-09-09T05:49:01;9.20;;;7.80;;
57067;SDS011;43391;47.448;18.904;2022-09-09T05:51:27;10.85;;;7.80;;
57067;SDS011;43391;47.448;18.904;2022-09-09T05:53:55;8.07;;;7.28;;
57067;SDS011;43391;47.448;18.904;2022-09-09T05:56:24;10.15;;;7.70;;
57067;SDS011;43391;47.448;18.904;2022-09-09T05:58:51;8.88;;;8.07;;
57067;SDS011;43391;47.448;18.904;2022-09-09T06:01:23;7.70;;;7.00;;
57067;SDS011;43391;47.448;18.904;2022-09-09T06:03:56;8.05;;;7.05;;
57067;SDS011;43391;47.448;18.904;2022-09-09T06:06:22;9.02;;;7.03;;
57067;SDS011;43391;47.448;18.904;2022-09-09T06:08:51;7.93;;;7.13;;
57067;SDS011;43391;47.448;18.904;2022-09-09T06:11:19;7.72;;;7.03;;
57067;SDS011;43391;47.448;18.904;2022-09-09T06:13:46;9.15;;;7.03;;
57067;SDS011;43391;47.448;18.904;2022-09-09T06:16:13;8.80;;;7.90;;
57067;SDS011;43391;47.448;18.904;2022-09-09T06:18:41;8.63;;;7.25;;
57067;SDS011;43391;47.448;18.904;2022-09-09T06:21:09;9.10;;;7.45;;
57067;SDS011;43391;47.448;18.904;2022-09-09T06:23:39;10.13;;;7.07;;
57067;SDS011;43391;47.448;18.904;2022-09-09T06:26:12;12.43;;;7.60;;
57067;SDS011;43391;47.448;18.904;2022-09-09T06:28:38;9.60;;;6.90;;
57067;SDS011;43391;47.448;18.904;2022-09-09T06:31:04;7.63;;;6.80;;
57067;SDS011;43391;47.448;18.904;2022-09-09T06:33:35;8.18;;;6.70;;
57067;SDS011;43391;47.448;18.904;2022-09-09T06:36:06;7.55;;;6.35;;
57067;SDS011;43391;47.448;18.904;2022-09-09T06:38:35;6.57;;;5.93;;
57067;SDS011;43391;47.448;18.904;2022-09-09T06:41:00;6.95;;;5.82;;
57067;SDS011;43391;47.448;18.904;2022-09-09T06:43:27;6.30;;;5.13;;
57067;SDS011;43391;47.448;18.904;2022-09-09T06:45:56;6.35;;;5.72;;
57067;SDS011;43391;47.448;18.904;2022-09-09T06:48:26;6.70;;;5.50;;
57067;SDS011;43391;47.448;18.904;2022-09-09T06:53:32;7.25;;;5.45;;
57067;SDS011;43391;47.448;18.904;2022-09-09T06:55:59;5.47;;;4.97;;
57067;SDS011;43391;47.448;18.904;2022-09-09T06:58:27;5.82;;;4.38;;
57067;SDS011;43391;47.448;18.904;2022-09-09T07:01:03;7.43;;;5.00;;
57067;SDS011;43391;47.448;18.904;2022-09-09T07:03:30;8.73;;;4.80;;
57067;SDS011;43391;47.448;18.904;2022-09-09T07:05:56;5.90;;;5.30;;
57067;SDS011;43391;47.448;18.904;2022-09-09T07:08:22;5.00;;;4.53;;
57067;SDS011;43391;47.448;18.904;2022-09-09T07:10:47;5.80;;;4.40;;
57067;SDS011;43391;47.448;18.904;2022-09-09T07:13:13;5.18;;;4.70;;
57067;SDS011;43391;47.448;18.904;2022-09-09T07:15:40;6.47;;;4.78;;
57067;SDS011;43391;47.448;18.904;2022-09-09T07:18:06;6.63;;;4.65;;
57067;SDS011;43391;47.448;18.904;2022-09-09T07:20:32;5.22;;;4.72;;
57067;SDS011;43391;47.448;18.904;2022-09-09T07:22:57;7.80;;;4.93;;
57067;SDS011;43391;47.448;18.904;2022-09-09T07:25:24;7.10;;;4.35;;
57067;SDS011;43391;47.448;18.904;2022-09-09T07:30:18;5.47;;;4.47;;
57067;SDS011;43391;47.448;18.904;2022-09-09T07:32:44;5.45;;;4.50;;
57067;SDS011;43391;47.448;18.904;2022-09-09T07:35:09;4.47;;;4.07;;
57067;SDS011;43391;47.448;18.904;2022-09-09T07:37:36;5.55;;;3.70;;
57067;SDS011;43391;47.448;18.904;2022-09-09T07:40:02;3.65;;;3.33;;
57067;SDS011;43391;47.448;18.904;2022-09-09T07:42:28;5.45;;;3.20;;
57067;SDS011;43391;47.448;18.904;2022-09-09T07:44:54;4.43;;;3.20;;
57067;SDS011;43391;47.448;18.904;2022-09-09T07:47:20;6.70;;;3.38;;
57067;SDS011;43391;47.448;18.904;2022-09-09T07:49:45;4.82;;;3.40;;
57067;SDS011;43391;47.448;18.904;2022-09-09T07:52:11;3.47;;;3.08;;
57067;SDS011;43391;47.448;18.904;2022-09-09T07:54:37;3.80;;;3.13;;
57067;SDS011;43391;47.448;18.904;2022-09-09T07:57:02;5.15;;;3.00;;
57067;SDS011;43391;47.448;18.904;2022-09-09T07:59:29;3.08;;;2.88;;
57067;SDS011;43391;47.448;18.904;2022-09-09T08:01:55;3.88;;;2.80;;
57067;SDS011;43391;47.448;18.904;2022-09-09T08:04:21;5.03;;;2.80;;
57067;SDS011;43391;47.448;18.904;2022-09-09T08:06:49;3.33;;;2.78;;
57067;SDS011;43391;47.448;18.904;2022-09-09T08:09:18;6.50;;;2.65;;
57067;SDS011;43391;47.448;18.904;2022-09-09T08:11:44;3.47;;;2.58;;
57067;SDS011;43391;47.448;18.904;2022-09-09T08:14:09;3.15;;;2.35;;
57067;SDS011;43391;47.448;18.904;2022-09-09T08:16:37;5.00;;;3.05;;
57067;SDS011;43391;47.448;18.904;2022-09-09T08:19:05;6.43;;;2.72;;
57067;SDS011;43391;47.448;18.904;2022-09-09T08:21:32;2.97;;;2.78;;
57067;SDS011;43391;47.448;18.904;2022-09-09T08:24:00;3.03;;;2.30;;
57067;SDS011;43391;47.448;18.904;2022-09-09T08:26:27;2.78;;;2.47;;
57067;SDS011;43391;47.448;18.904;2022-09-09T08:29:00;3.30;;;2.35;;
57067;SDS011;43391;47.448;18.904;2022-09-09T08:33:59;2.85;;;2.25;;
57067;SDS011;43391;47.448;18.904;2022-09-09T08:36:26;2.53;;;2.33;;
57067;SDS011;43391;47.448;18.904;2022-09-09T08:52:13;3.65;;;1.70;;
57067;SDS011;43391;47.448;18.904;2022-09-09T08:54:52;2.05;;;1.85;;
57067;SDS011;43391;47.448;18.904;2022-09-09T08:57:23;4.93;;;1.92;;
57067;SDS011;43391;47.448;18.904;2022-09-09T08:59:52;3.58;;;2.10;;
57067;SDS011;43391;47.448;18.904;2022-09-09T09:02:36;2.22;;;1.60;;
57067;SDS011;43391;47.448;18.904;2022-09-09T09:10:46;1.52;;;1.42;;
57067;SDS011;43391;47.448;18.904;2022-09-09T09:13:18;4.47;;;2.17;;
57067;SDS011;43391;47.448;18.904;2022-09-09T09:15:49;1.83;;;1.73;;
57067;SDS011;43391;47.448;18.904;2022-09-09T09:18:19;3.83;;;1.85;;
57067;SDS011;43391;47.448;18.904;2022-09-09T09:23:24;3.60;;;1.58;;
57067;SDS011;43391;47.448;18.904;2022-09-09T09:25:56;3.25;;;1.40;;
57067;SDS011;43391;47.448;18.904;2022-09-09T09:28:26;2.03;;;1.60;;
57067;SDS011;43391;47.448;18.904;2022-09-09T09:30:56;1.58;;;1.35;;
57067;SDS011;43391;47.448;18.904;2022-09-09T09:36:06;2.63;;;1.10;;
57067;SDS011;43391;47.448;18.904;2022-09-09T09:38:33;1.27;;;1.20;;
57067;SDS011;43391;47.448;18.904;2022-09-09T09:41:00;1.35;;;1.25;;
57067;SDS011;43391;47.448;18.904;2022-09-09T09:43:35;1.40;;;1.30;;
57067;SDS011;43391;47.448;18.904;2022-09-09T09:46:05;1.30;;;1.20;;
57067;SDS011;43391;47.448;18.904;2022-09-09T09:48:42;0.90;;;0.90;;
57067;SDS011;43391;47.448;18.904;2022-09-09T09:51:09;1.65;;;1.10;;
57067;SDS011;43391;47.448;18.904;2022-09-09T09:53:38;1.92;;;1.13;;
57067;SDS011;43391;47.448;18.904;2022-09-09T09:56:05;2.75;;;1.27;;
57067;SDS011;43391;47.448;18.904;2022-09-09T10:01:03;0.90;;;0.80;;
57067;SDS011;43391;47.448;18.904;2022-09-09T10:03:33;4.13;;;1.30;;
57067;SDS011;43391;47.448;18.904;2022-09-09T10:06:02;3.03;;;1.25;;
57067;SDS011;43391;47.448;18.904;2022-09-09T10:08:29;1.27;;;1.17;;
57067;SDS011;43391;47.448;18.904;2022-09-09T10:19:31;1.20;;;1.20;;
57067;SDS011;43391;47.448;18.904;2022-09-09T10:22:11;1.23;;;1.13;;
57067;SDS011;43391;47.448;18.904;2022-09-09T10:31:12;3.13;;;0.90;;
57067;SDS011;43391;47.448;18.904;2022-09-09T10:33:30;1.95;;;0.95;;
57067;SDS011;43391;47.448;18.904;2022-09-09T10:38:39;0.98;;;0.80;;
57067;SDS011;43391;47.448;18.904;2022-09-09T10:46:49;0.80;;;0.80;;
57067;SDS011;43391;47.448;18.904;2022-09-09T10:52:23;1.10;;;0.80;;
57067;SDS011;43391;47.448;18.904;2022-09-09T10:55:14;0.85;;;0.85;;
57067;SDS011;43391;47.448;18.904;2022-09-09T11:00:20;1.63;;;0.88;;
57067;SDS011;43391;47.448;18.904;2022-09-09T11:03:00;1.75;;;1.05;;
57067;SDS011;43391;47.448;18.904;2022-09-09T11:05:31;1.10;;;0.98;;
57067;SDS011;43391;47.448;18.904;2022-09-09T11:08:10;2.38;;;0.80;;
57067;SDS011;43391;47.448;18.904;2022-09-09T11:10:52;0.82;;;0.82;;
57067;SDS011;43391;47.448;18.904;2022-09-09T11:21:32;0.60;;;0.60;;
57067;SDS011;43391;47.448;18.904;2022-09-09T11:24:03;2.20;;;0.82;;
57067;SDS011;43391;47.448;18.904;2022-09-09T11:26:55;3.72;;;0.90;;
57067;SDS011;43391;47.448;18.904;2022-09-09T11:38:20;2.38;;;1.05;;
57067;SDS011;43391;47.448;18.904;2022-09-09T11:41:01;1.25;;;0.98;;
57067;SDS011;43391;47.448;18.904;2022-09-09T11:43:41;1.40;;;1.20;;
57067;SDS011;43391;47.448;18.904;2022-09-09T11:46:12;2.33;;;1.42;;
57067;SDS011;43391;47.448;18.904;2022-09-09T11:48:43;2.15;;;0.93;;
57067;SDS011;43391;47.448;18.904;2022-09-09T11:51:26;0.93;;;0.90;;
57067;SDS011;43391;47.448;18.904;2022-09-09T11:56:29;1.20;;;1.10;;
57067;SDS011;43391;47.448;18.904;2022-09-09T11:58:57;2.20;;;1.42;;
57067;SDS011;43391;47.448;18.904;2022-09-09T12:01:45;1.03;;;0.90;;
57067;SDS011;43391;47.448;18.904;2022-09-09T12:04:12;1.15;;;1.05;;
57067;SDS011;43391;47.448;18.904;2022-09-09T12:06:43;1.65;;;0.93;;
57067;SDS011;43391;47.448;18.904;2022-09-09T12:11:44;1.73;;;1.20;;
57067;SDS011;43391;47.448;18.904;2022-09-09T12:14:23;1.30;;;0.90;;
57067;SDS011;43391;47.448;18.904;2022-09-09T12:17:17;0.80;;;0.80;;
57067;SDS011;43391;47.448;18.904;2022-09-09T12:19:44;1.15;;;1.05;;
57067;SDS011;43391;47.448;18.904;2022-09-09T12:24:49;0.98;;;0.80;;
57067;SDS011;43391;47.448;18.904;2022-09-09T12:27:25;1.13;;;1.05;;
57067;SDS011;43391;47.448;18.904;2022-09-09T12:30:07;1.30;;;1.20;;
57067;SDS011;43391;47.448;18.904;2022-09-09T12:32:39;1.20;;;1.02;;
57067;SDS011;43391;47.448;18.904;2022-09-09T12:35:20;1.42;;;0.90;;
57067;SDS011;43391;47.448;18.904;2022-09-09T12:37:52;10.60;;;8.98;;
57067;SDS011;43391;47.448;18.904;2022-09-09T12:42:47;5.10;;;4.07;;
57067;SDS011;43391;47.448;18.904;2022-09-09T12:45:17;2.60;;;1.25;;
57067;SDS011;43391;47.448;18.904;2022-09-09T12:47:48;1.05;;;1.00;;
57067;SDS011;43391;47.448;18.904;2022-09-09T12:50:24;1.80;;;1.00;;
57067;SDS011;43391;47.448;18.904;2022-09-09T12:52:56;1.40;;;1.00;;
57067;SDS011;43391;47.448;18.904;2022-09-09T12:55:25;1.10;;;1.00;;
57067;SDS011;43391;47.448;18.904;2022-09-09T12:57:55;1.05;;;1.05;;
57067;SDS011;43391;47.448;18.904;2022-09-09T13:00:23;2.35;;;1.20;;
57067;SDS011;43391;47.448;18.904;2022-09-09T13:02:53;2.80;;;0.90;;
57067;SDS011;43391;47.448;18.904;2022-09-09T13:05:24;0.82;;;0.82;;
57067;SDS011;43391;47.448;18.904;2022-09-09T13:08:01;1.10;;;1.00;;
57067;SDS011;43391;47.448;18.904;2022-09-09T13:10:33;0.95;;;0.85;;
57067;SDS011;43391;47.448;18.904;2022-09-09T13:13:04;2.15;;;1.08;;
57067;SDS011;43391;47.448;18.904;2022-09-09T13:15:38;1.85;;;0.90;;
57067;SDS011;43391;47.448;18.904;2022-09-09T13:18:06;1.10;;;0.93;;
57067;SDS011;43391;47.448;18.904;2022-09-09T13:20:36;1.60;;;1.20;;
57067;SDS011;43391;47.448;18.904;2022-09-09T13:23:02;0.68;;;0.68;;
57067;SDS011;43391;47.448;18.904;2022-09-09T13:25:28;1.20;;;1.10;;
57067;SDS011;43391;47.448;18.904;2022-09-09T13:27:55;1.20;;;0.95;;
57067;SDS011;43391;47.448;18.904;2022-09-09T13:30:32;1.95;;;1.02;;
57067;SDS011;43391;47.448;18.904;2022-09-09T13:38:21;1.85;;;1.15;;
57067;SDS011;43391;47.448;18.904;2022-09-09T13:43:53;1.95;;;0.90;;
57067;SDS011;43391;47.448;18.904;2022-09-09T13:46:24;1.02;;;0.93;;
57067;SDS011;43391;47.448;18.904;2022-09-09T13:51:41;1.63;;;0.93;;
57067;SDS011;43391;47.448;18.904;2022-09-09T13:54:09;1.20;;;0.70;;
57067;SDS011;43391;47.448;18.904;2022-09-09T13:56:36;1.60;;;1.00;;
57067;SDS011;43391;47.448;18.904;2022-09-09T13:59:04;1.00;;;0.90;;
57067;SDS011;43391;47.448;18.904;2022-09-09T14:01:31;0.88;;;0.88;;
57067;SDS011;43391;47.448;18.904;2022-09-09T14:03:58;1.77;;;0.90;;
57067;SDS011;43391;47.448;18.904;2022-09-09T14:06:23;13.77;;;1.10;;
57067;SDS011;43391;47.448;18.904;2022-09-09T14:08:49;1.52;;;1.00;;
57067;SDS011;43391;47.448;18.904;2022-09-09T14:11:15;0.90;;;0.90;;
57067;SDS011;43391;47.448;18.904;2022-09-09T14:13:41;0.82;;;0.82;;
57067;SDS011;43391;47.448;18.904;2022-09-09T14:16:07;1.30;;;1.20;;
57067;SDS011;43391;47.448;18.904;2022-09-09T14:18:32;1.20;;;1.10;;
57067;SDS011;43391;47.448;18.904;2022-09-09T14:20:59;2.20;;;1.33;;
57067;SDS011;43391;47.448;18.904;2022-09-09T14:23:24;1.10;;;1.00;;
57067;SDS011;43391;47.448;18.904;2022-09-09T14:25:50;1.63;;;1.30;;
57067;SDS011;43391;47.448;18.904;2022-09-09T14:28:16;2.13;;;1.00;;
57067;SDS011;43391;47.448;18.904;2022-09-09T14:30:42;1.70;;;0.90;;
57067;SDS011;43391;47.448;18.904;2022-09-09T14:33:09;0.85;;;0.85;;
57067;SDS011;43391;47.448;18.904;2022-09-09T14:35:36;4.38;;;1.33;;
57067;SDS011;43391;47.448;18.904;2022-09-09T14:38:02;7.28;;;1.45;;
57067;SDS011;43391;47.448;18.904;2022-09-09T14:40:29;1.20;;;1.03;;
57067;SDS011;43391;47.448;18.904;2022-09-09T14:42:54;1.92;;;1.00;;
57067;SDS011;43391;47.448;18.904;2022-09-09T14:45:21;1.02;;;0.90;;
57067;SDS011;43391;47.448;18.904;2022-09-09T14:50:15;1.75;;;0.90;;
57067;SDS011;43391;47.448;18.904;2022-09-09T14:52:40;1.00;;;0.80;;
57067;SDS011;43391;47.448;18.904;2022-09-09T14:55:05;1.42;;;0.90;;
57067;SDS011;43391;47.448;18.904;2022-09-09T14:57:32;1.25;;;0.80;;
57067;SDS011;43391;47.448;18.904;2022-09-09T14:59:57;4.60;;;1.00;;
57067;SDS011;43391;47.448;18.904;2022-09-09T15:02:23;1.33;;;0.95;;
57067;SDS011;43391;47.448;18.904;2022-09-09T15:04:48;1.65;;;1.00;;
57067;SDS011;43391;47.448;18.904;2022-09-09T15:07:15;1.08;;;1.00;;
57067;SDS011;43391;47.448;18.904;2022-09-09T15:09:41;1.92;;;1.00;;
57067;SDS011;43391;47.448;18.904;2022-09-09T15:12:07;5.25;;;1.23;;
57067;SDS011;43391;47.448;18.904;2022-09-09T15:14:32;3.88;;;1.17;;
57067;SDS011;43391;47.448;18.904;2022-09-09T15:16:58;3.50;;;1.00;;
57067;SDS011;43391;47.448;18.904;2022-09-09T15:19:23;2.17;;;1.30;;
57067;SDS011;43391;47.448;18.904;2022-09-09T15:21:48;2.13;;;1.00;;
57067;SDS011;43391;47.448;18.904;2022-09-09T15:24:14;1.42;;;0.90;;
57067;SDS011;43391;47.448;18.904;2022-09-09T15:26:41;4.93;;;1.10;;
57067;SDS011;43391;47.448;18.904;2022-09-09T15:29:06;3.63;;;1.17;;
57067;SDS011;43391;47.448;18.904;2022-09-09T15:31:33;2.40;;;1.40;;
57067;SDS011;43391;47.448;18.904;2022-09-09T15:33:59;4.72;;;1.15;;
57067;SDS011;43391;47.448;18.904;2022-09-09T15:36:30;0.85;;;0.85;;
57067;SDS011;43391;47.448;18.904;2022-09-09T15:39:07;1.35;;;1.00;;
57067;SDS011;43391;47.448;18.904;2022-09-09T15:41:38;1.17;;;1.00;;
57067;SDS011;43391;47.448;18.904;2022-09-09T15:44:04;1.30;;;1.20;;
57067;SDS011;43391;47.448;18.904;2022-09-09T15:46:34;1.90;;;0.80;;
57067;SDS011;43391;47.448;18.904;2022-09-09T15:49:11;1.10;;;1.00;;
57067;SDS011;43391;47.448;18.904;2022-09-09T15:51:42;1.90;;;1.42;;
57067;SDS011;43391;47.448;18.904;2022-09-09T15:54:10;2.20;;;1.00;;
57067;SDS011;43391;47.448;18.904;2022-09-09T15:56:41;1.83;;;0.90;;
57067;SDS011;43391;47.448;18.904;2022-09-09T15:59:07;2.90;;;0.93;;
57067;SDS011;43391;47.448;18.904;2022-09-09T16:01:33;0.90;;;0.90;;
57067;SDS011;43391;47.448;18.904;2022-09-09T16:03:59;1.73;;;1.00;;
57067;SDS011;43391;47.448;18.904;2022-09-09T16:06:25;1.55;;;1.15;;
57067;SDS011;43391;47.448;18.904;2022-09-09T16:08:53;1.83;;;1.08;;
57067;SDS011;43391;47.448;18.904;2022-09-09T16:11:26;1.52;;;1.42;;
57067;SDS011;43391;47.448;18.904;2022-09-09T16:13:54;6.38;;;1.20;;
57067;SDS011;43391;47.448;18.904;2022-09-09T16:16:21;1.92;;;1.20;;
57067;SDS011;43391;47.448;18.904;2022-09-09T16:18:50;2.70;;;1.40;;
57067;SDS011;43391;47.448;18.904;2022-09-09T16:21:19;2.08;;;1.00;;
57067;SDS011;43391;47.448;18.904;2022-09-09T16:23:46;3.70;;;1.20;;
57067;SDS011;43391;47.448;18.904;2022-09-09T16:26:14;3.58;;;1.30;;
57067;SDS011;43391;47.448;18.904;2022-09-09T16:28:41;1.65;;;1.00;;
57067;SDS011;43391;47.448;18.904;2022-09-09T16:31:07;2.60;;;1.40;;
57067;SDS011;43391;47.448;18.904;2022-09-09T16:36:07;2.50;;;1.10;;
57067;SDS011;43391;47.448;18.904;2022-09-09T16:38:35;2.25;;;1.25;;
57067;SDS011;43391;47.448;18.904;2022-09-09T16:41:01;3.53;;;2.05;;
57067;SDS011;43391;47.448;18.904;2022-09-09T16:43:27;2.15;;;1.25;;
57067;SDS011;43391;47.448;18.904;2022-09-09T16:45:53;3.50;;;1.40;;
57067;SDS011;43391;47.448;18.904;2022-09-09T16:48:18;2.90;;;1.23;;
57067;SDS011;43391;47.448;18.904;2022-09-09T16:50:44;5.45;;;1.25;;
57067;SDS011;43391;47.448;18.904;2022-09-09T16:53:10;6.13;;;1.25;;
57067;SDS011;43391;47.448;18.904;2022-09-09T16:55:40;2.05;;;1.10;;
57067;SDS011;43391;47.448;18.904;2022-09-09T16:58:07;2.88;;;1.13;;
57067;SDS011;43391;47.448;18.904;2022-09-09T17:00:35;3.67;;;1.45;;
57067;SDS011;43391;47.448;18.904;2022-09-09T17:03:01;2.80;;;1.48;;
57067;SDS011;43391;47.448;18.904;2022-09-09T17:05:27;1.92;;;1.42;;
57067;SDS011;43391;47.448;18.904;2022-09-09T17:07:53;2.65;;;1.50;;
57067;SDS011;43391;47.448;18.904;2022-09-09T17:10:20;2.97;;;1.30;;
57067;SDS011;43391;47.448;18.904;2022-09-09T17:12:46;6.05;;;1.38;;
57067;SDS011;43391;47.448;18.904;2022-09-09T17:15:11;1.20;;;0.82;;